createdAt,value
2022-08-14T00:01:57.672Z,53.90
2022-08-14T00:04:35.386Z,54.00
2022-08-14T00:07:11.505Z,54.10
2022-08-14T00:10:01.753Z,54.30
2022-08-14T00:12:39.049Z,54.60
2022-08-14T00:15:43.845Z,54.70
2022-08-14T00:18:30.652Z,54.80
2022-08-14T00:21:03.138Z,55.00
2022-08-14T00:23:30.068Z,55.20
2022-08-14T00:25:59.409Z,55.40
2022-08-14T00:28:36.837Z,55.60
2022-08-14T00:31:08.013Z,56.00
2022-08-14T00:33:51.016Z,56.80
2022-08-14T00:36:35.224Z,56.20
2022-08-14T00:39:09.638Z,56.50
2022-08-14T00:41:39.209Z,56.80
2022-08-14T00:44:06.881Z,56.90
2022-08-14T00:46:37.221Z,57.10
2022-08-14T00:49:05.851Z,57.50
2022-08-14T00:51:36.825Z,57.80
2022-08-14T00:54:11.049Z,58.00
2022-08-14T00:56:50.040Z,58.20
2022-08-14T00:59:17.243Z,58.50
2022-08-14T01:01:45.753Z,58.30
2022-08-14T01:04:50.891Z,58.20
2022-08-14T01:07:01.318Z,58.50
2022-08-14T01:09:37.519Z,59.10
2022-08-14T01:12:07.814Z,59.50
2022-08-14T01:14:35.618Z,59.80
2022-08-14T01:17:04.081Z,59.80
2022-08-14T01:19:49.887Z,60.10
2022-08-14T01:22:20.937Z,60.10
2022-08-14T01:24:53.602Z,59.80
2022-08-14T01:27:24.474Z,59.50
2022-08-14T01:30:03.265Z,60.00
2022-08-14T01:32:37.293Z,60.20
2022-08-14T01:35:19.760Z,60.30
2022-08-14T01:37:57.165Z,60.70
2022-08-14T01:40:36.281Z,61.10
2022-08-14T01:43:14.353Z,61.50
2022-08-14T01:45:42.535Z,61.70
2022-08-14T01:48:16.051Z,61.60
2022-08-14T01:50:47.639Z,61.20
2022-08-14T01:53:14.627Z,61.30
2022-08-14T01:55:41.976Z,61.50
2022-08-14T01:58:19.477Z,61.50
2022-08-14T02:00:55.413Z,62.00
2022-08-14T02:03:31.349Z,62.00
2022-08-14T02:06:32.658Z,62.50
2022-08-14T02:08:53.234Z,62.50
2022-08-14T02:11:25.513Z,62.60
2022-08-14T02:13:58.423Z,63.00
2022-08-14T02:16:32.858Z,63.30
2022-08-14T02:19:04.286Z,63.70
2022-08-14T02:21:43.273Z,63.40
2022-08-14T02:24:39.495Z,63.60
2022-08-14T02:28:23.734Z,64.00
2022-08-14T02:30:00.068Z,64.40
2022-08-14T02:32:36.675Z,64.30
2022-08-14T02:35:17.499Z,64.40
2022-08-14T02:37:49.173Z,64.50
2022-08-14T02:40:31.853Z,64.60
2022-08-14T02:43:02.404Z,65.10
2022-08-14T02:45:38.542Z,64.50
2022-08-14T02:49:03.203Z,64.70
2022-08-14T02:51:01.330Z,64.90
2022-08-14T02:53:33.689Z,65.80
2022-08-14T02:56:29.458Z,66.40
2022-08-14T02:58:55.801Z,66.80
2022-08-14T03:01:31.532Z,66.80
2022-08-14T03:04:15.557Z,66.60
2022-08-14T03:06:57.430Z,66.80
2022-08-14T03:09:25.676Z,67.30
2022-08-14T03:12:12.530Z,67.70
2022-08-14T03:14:48.873Z,67.90
2022-08-14T03:17:16.197Z,67.90
2022-08-14T03:19:44.543Z,67.80
2022-08-14T03:22:17.844Z,68.10
2022-08-14T03:24:45.050Z,68.40
2022-08-14T03:27:13.972Z,68.90
2022-08-14T03:29:41.225Z,69.40
2022-08-14T03:32:08.399Z,70.00
2022-08-14T03:34:55.322Z,70.40
2022-08-14T03:37:38.907Z,70.50
2022-08-14T03:40:12.150Z,70.60
2022-08-14T03:42:45.465Z,71.00
2022-08-14T03:45:19.432Z,71.00
2022-08-14T03:47:58.548Z,70.90
2022-08-14T03:50:31.356Z,71.00
2022-08-14T03:53:03.422Z,71.00
2022-08-14T03:55:31.342Z,71.30
2022-08-14T03:58:00.290Z,71.30
2022-08-14T04:00:43.454Z,71.60
2022-08-14T04:03:23.531Z,72.20
2022-08-14T04:05:52.922Z,72.60
2022-08-14T04:08:28.988Z,72.40
2022-08-14T04:11:01.081Z,72.50
2022-08-14T04:13:31.809Z,72.80
2022-08-14T04:16:12.322Z,73.40
2022-08-14T04:18:43.423Z,74.50
2022-08-14T04:21:13.171Z,74.10
2022-08-14T04:23:42.704Z,73.90
2022-08-14T04:26:14.797Z,73.90
2022-08-14T04:29:07.476Z,74.40
2022-08-14T04:32:58.105Z,74.80
2022-08-14T04:34:24.095Z,74.80
2022-08-14T04:37:22.058Z,74.90
2022-08-14T04:40:08.801Z,75.00
2022-08-14T04:42:54.794Z,74.60
2022-08-14T04:45:24.983Z,74.40
2022-08-14T04:48:12.740Z,74.30
2022-08-14T04:50:53.953Z,74.60
2022-08-14T04:53:35.446Z,75.00
2022-08-14T04:56:06.915Z,75.00
2022-08-14T04:58:37.835Z,75.20
2022-08-14T05:01:12.898Z,75.30
2022-08-14T05:03:49.605Z,75.00
2022-08-14T05:06:38.795Z,74.70
2022-08-14T05:09:14.033Z,74.30
2022-08-14T05:11:44.331Z,74.30
2022-08-14T05:14:33.884Z,74.40
2022-08-14T05:17:01.081Z,74.30
2022-08-14T05:19:32.777Z,74.40
2022-08-14T05:22:15.570Z,74.30
2022-08-14T05:24:49.683Z,74.10
2022-08-14T05:27:23.279Z,74.40
2022-08-14T05:29:53.509Z,74.70
2022-08-14T05:32:21.709Z,74.90
2022-08-14T05:34:49.762Z,74.60
2022-08-14T05:37:16.804Z,75.00
2022-08-14T05:39:43.935Z,75.20
2022-08-14T05:42:21.646Z,74.80
2022-08-14T05:44:55.744Z,74.70
2022-08-14T05:47:24.266Z,74.30
2022-08-14T05:49:58.329Z,74.40
2022-08-14T05:52:26.352Z,74.30
2022-08-14T05:55:08.489Z,74.20
2022-08-14T05:58:07.203Z,74.50
2022-08-14T06:00:42.398Z,74.40
2022-08-14T06:03:14.782Z,74.60
2022-08-14T06:05:44.149Z,74.30
2022-08-14T06:08:41.028Z,74.10
2022-08-14T06:11:10.132Z,74.00
2022-08-14T06:13:45.155Z,73.80
2022-08-14T06:16:17.895Z,73.80
2022-08-14T06:18:51.885Z,73.30
2022-08-14T06:21:23.427Z,72.90
2022-08-14T06:23:51.424Z,72.70
2022-08-14T06:26:20.422Z,72.20
2022-08-14T06:28:48.214Z,72.00
2022-08-14T06:31:20.770Z,71.80
2022-08-14T06:35:11.453Z,71.40
2022-08-14T06:36:39.512Z,70.70
2022-08-14T06:39:10.820Z,70.30
2022-08-14T06:41:58.452Z,70.10
2022-08-14T06:44:30.866Z,69.80
2022-08-14T06:47:02.043Z,69.70
2022-08-14T06:49:30.281Z,69.50
2022-08-14T06:51:57.537Z,69.30
2022-08-14T06:54:31.772Z,69.10
2022-08-14T06:56:58.993Z,68.90
2022-08-14T06:59:26.461Z,68.70
2022-08-14T07:02:13.583Z,68.50
2022-08-14T07:05:05.396Z,68.10
2022-08-14T07:07:41.218Z,67.50
2022-08-14T07:10:13.282Z,67.60
2022-08-14T07:13:02.108Z,67.00
2022-08-14T07:15:34.051Z,66.90
2022-08-14T07:18:09.325Z,66.60
2022-08-14T07:20:37.738Z,65.60
2022-08-14T07:23:10.955Z,65.70
2022-08-14T07:25:48.414Z,65.00
2022-08-14T07:28:28.216Z,64.60
2022-08-14T07:31:04.590Z,64.40
2022-08-14T07:33:43.506Z,64.10
2022-08-14T07:36:27.862Z,63.00
2022-08-14T07:38:59.732Z,63.40
2022-08-14T07:41:37.531Z,62.70
2022-08-14T07:44:32.724Z,62.60
2022-08-14T07:47:02.575Z,61.60
2022-08-14T07:49:34.199Z,61.40
2022-08-14T07:52:03.395Z,61.00
2022-08-14T07:54:31.512Z,60.30
2022-08-14T07:57:00.924Z,60.00
2022-08-14T07:59:42.601Z,59.80
2022-08-14T08:02:17.105Z,59.00
2022-08-14T08:04:54.065Z,59.70
2022-08-14T08:07:30.030Z,59.20
2022-08-14T08:10:01.238Z,58.20
2022-08-14T08:12:32.447Z,57.50
2022-08-14T08:15:05.585Z,57.90
2022-08-14T08:17:38.706Z,57.40
2022-08-14T08:20:11.733Z,57.00
2022-08-14T08:22:48.361Z,55.60
2022-08-14T08:25:20.830Z,55.30
2022-08-14T08:28:08.186Z,54.80
2022-08-14T08:30:49.479Z,54.80
2022-08-14T08:33:19.213Z,54.10
2022-08-14T08:35:50.653Z,54.00
2022-08-14T08:39:18.457Z,54.00
2022-08-14T08:41:11.051Z,54.40
2022-08-14T08:43:46.265Z,53.00
2022-08-14T08:46:21.379Z,52.50
2022-08-14T08:51:33.383Z,52.20
2022-08-14T08:54:19.801Z,51.60
2022-08-14T08:56:52.008Z,50.70
2022-08-14T08:59:30.800Z,50.90
2022-08-14T09:02:05.129Z,50.20
2022-08-14T09:04:53.511Z,49.40
2022-08-14T09:10:22.166Z,49.30
2022-08-14T09:12:51.688Z,49.10
2022-08-14T09:15:18.674Z,48.80
2022-08-14T09:17:46.408Z,48.30
2022-08-14T09:20:25.976Z,48.00
2022-08-14T09:22:58.984Z,47.00
2022-08-14T09:26:01.305Z,46.90
2022-08-14T09:28:15.053Z,46.40
2022-08-14T09:30:49.258Z,46.80
2022-08-14T09:33:33.756Z,46.90
2022-08-14T09:36:26.215Z,46.40
2022-08-14T09:39:46.663Z,46.10
2022-08-14T09:42:52.707Z,46.40
2022-08-14T09:45:40.043Z,45.50
2022-08-14T09:48:30.033Z,44.00
2022-08-14T09:54:13.572Z,43.40
2022-08-14T09:56:57.049Z,43.80
2022-08-14T09:59:28.344Z,42.60
2022-08-14T10:01:59.660Z,41.90
2022-08-14T10:04:36.657Z,40.30
2022-08-14T10:07:10.078Z,40.40
2022-08-14T10:09:59.671Z,40.40
2022-08-14T10:12:53.083Z,40.70
2022-08-14T10:15:30.032Z,40.10
2022-08-14T10:18:17.332Z,40.10
2022-08-14T10:20:57.426Z,39.90
2022-08-14T10:23:33.991Z,40.10
2022-08-14T10:26:07.635Z,39.70
2022-08-14T10:29:18.933Z,40.00
2022-08-14T10:31:43.248Z,39.80
2022-08-14T10:34:20.896Z,39.90
2022-08-14T10:37:14.461Z,40.10
2022-08-14T10:40:01.943Z,39.30
2022-08-14T10:42:43.607Z,39.10
2022-08-14T10:45:42.139Z,39.20
2022-08-14T10:48:24.279Z,38.60
2022-08-14T10:51:03.736Z,38.30
2022-08-14T10:53:39.265Z,38.20
2022-08-14T10:56:22.103Z,37.90
2022-08-14T10:59:08.319Z,37.90
2022-08-14T11:01:41.579Z,37.80
2022-08-14T11:04:26.132Z,38.30
2022-08-14T11:06:56.611Z,37.90
2022-08-14T11:09:23.806Z,37.50
2022-08-14T11:12:44.130Z,37.40
2022-08-14T11:15:02.576Z,37.10
2022-08-14T11:17:37.198Z,36.80
2022-08-14T11:20:14.157Z,36.90
2022-08-14T11:22:56.414Z,37.30
2022-08-14T11:25:36.819Z,36.90
2022-08-14T11:28:18.837Z,37.00
2022-08-14T11:30:53.843Z,36.00
2022-08-14T11:33:30.924Z,36.30
2022-08-14T11:36:00.960Z,36.50
2022-08-14T11:38:40.610Z,36.70
2022-08-14T11:41:14.232Z,36.20
2022-08-14T11:44:01.783Z,36.50
2022-08-14T11:47:18.379Z,36.50
2022-08-14T11:49:54.132Z,36.40
2022-08-14T11:52:21.759Z,35.70
2022-08-14T11:54:58.398Z,35.90
2022-08-14T11:57:26.524Z,35.20
2022-08-14T12:00:09.807Z,35.40
2022-08-14T12:03:03.254Z,35.10
2022-08-14T12:05:39.825Z,35.40
2022-08-14T12:08:11.101Z,35.40
2022-08-14T12:10:43.312Z,35.40
2022-08-14T12:13:17.533Z,35.10
2022-08-14T12:15:49.604Z,34.50
2022-08-14T12:18:36.549Z,34.80
2022-08-14T12:21:19.525Z,35.40
2022-08-14T12:24:00.656Z,35.00
2022-08-14T12:26:39.566Z,34.70
2022-08-14T12:29:13.028Z,34.60
2022-08-14T12:31:50.437Z,35.40
2022-08-14T12:34:20.202Z,36.20
2022-08-14T12:36:47.875Z,35.70
2022-08-14T12:39:25.637Z,35.70
2022-08-14T12:42:01.469Z,35.70
2022-08-14T12:44:44.337Z,35.60
2022-08-14T12:47:17.519Z,35.70
2022-08-14T12:49:54.251Z,35.50
2022-08-14T12:52:47.273Z,35.70
2022-08-14T12:55:32.315Z,35.60
2022-08-14T12:58:02.565Z,35.30
2022-08-14T13:01:16.148Z,35.50
2022-08-14T13:03:43.842Z,36.40
2022-08-14T13:06:15.819Z,37.00
2022-08-14T13:08:53.432Z,37.70
2022-08-14T13:11:30.937Z,37.80
2022-08-14T13:13:59.783Z,37.70
2022-08-14T13:16:37.895Z,37.10
2022-08-14T13:19:30.374Z,36.70
2022-08-14T13:22:33.373Z,36.10
2022-08-14T13:25:24.475Z,36.20
2022-08-14T13:27:59.952Z,36.60
2022-08-14T13:30:38.704Z,36.40
2022-08-14T13:33:28.892Z,35.70
2022-08-14T13:35:57.143Z,35.90
2022-08-14T13:38:25.371Z,35.50
2022-08-14T13:40:58.256Z,35.20
2022-08-14T13:43:25.687Z,35.40
2022-08-14T13:46:03.817Z,35.20
2022-08-14T13:48:36.374Z,35.40
2022-08-14T13:51:11.042Z,35.20
2022-08-14T13:54:07.231Z,35.40
2022-08-14T13:57:00.694Z,35.10
2022-08-14T13:59:37.801Z,35.50
2022-08-14T14:02:08.696Z,35.10
2022-08-14T14:04:46.378Z,35.40
2022-08-14T14:07:21.669Z,34.60
2022-08-14T14:09:54.690Z,35.40
2022-08-14T14:12:38.122Z,35.70
2022-08-14T14:15:12.208Z,35.60
2022-08-14T14:17:40.111Z,35.40
2022-08-14T14:20:35.243Z,35.60
2022-08-14T14:23:11.823Z,35.40
2022-08-14T14:25:51.316Z,35.50
2022-08-14T14:28:31.734Z,36.10
2022-08-14T14:31:06.989Z,35.70
2022-08-14T14:33:47.695Z,35.40
2022-08-14T14:40:53.928Z,35.00
2022-08-14T14:43:19.034Z,35.80
2022-08-14T14:45:50.372Z,34.50
2022-08-14T14:48:20.476Z,35.00
2022-08-14T14:50:52.938Z,35.20
2022-08-14T14:53:21.414Z,35.80
2022-08-14T14:56:48.256Z,36.40
2022-08-14T14:58:37.778Z,36.30
2022-08-14T15:01:10.535Z,36.80
2022-08-14T15:03:40.440Z,36.60
2022-08-14T15:06:09.059Z,36.90
2022-08-14T15:08:57.070Z,37.10
2022-08-14T15:11:30.196Z,36.80
2022-08-14T15:14:00.198Z,37.20
2022-08-14T15:16:28.727Z,37.60
2022-08-14T15:18:57.056Z,37.90
2022-08-14T15:21:24.837Z,37.70
2022-08-14T15:23:54.523Z,37.30
2022-08-14T15:26:24.354Z,37.20
2022-08-14T15:29:03.009Z,37.10
2022-08-14T15:31:36.143Z,37.40
2022-08-14T15:34:40.788Z,37.10
2022-08-14T15:36:58.202Z,37.60
2022-08-14T15:39:25.988Z,37.70
2022-08-14T15:41:57.986Z,37.70
2022-08-14T15:44:28.864Z,37.30
2022-08-14T15:47:01.727Z,37.40
2022-08-14T15:49:34.844Z,37.20
2022-08-14T15:52:03.445Z,37.70
2022-08-14T15:54:31.918Z,38.00
2022-08-14T15:57:08.961Z,38.00
2022-08-14T15:59:58.659Z,37.70
2022-08-14T16:02:27.806Z,37.40
2022-08-14T16:04:55.714Z,37.70
2022-08-14T16:07:25.127Z,37.60
2022-08-14T16:10:18.332Z,37.90
2022-08-14T16:12:46.203Z,37.70
2022-08-14T16:15:16.815Z,38.50
2022-08-14T16:17:45.379Z,37.50
2022-08-14T16:20:42.546Z,37.20
2022-08-14T16:23:10.421Z,37.10
2022-08-14T16:25:41.978Z,37.70
2022-08-14T16:28:13.434Z,37.50
2022-08-14T16:30:55.263Z,37.60
2022-08-14T16:33:27.825Z,37.90
2022-08-14T16:36:30.712Z,37.90
2022-08-14T16:39:06.263Z,38.20
2022-08-14T16:41:34.807Z,38.10
2022-08-14T16:44:22.119Z,38.50
2022-08-14T16:47:07.027Z,38.00
2022-08-14T16:50:04.140Z,38.40
2022-08-14T16:52:26.382Z,39.00
2022-08-14T16:55:14.092Z,39.40
2022-08-14T16:57:54.250Z,39.40
2022-08-14T17:00:43.085Z,38.60
2022-08-14T17:03:12.563Z,38.30
2022-08-14T17:05:46.598Z,38.30
2022-08-14T17:08:32.510Z,38.50
2022-08-14T17:11:10.694Z,38.50
2022-08-14T17:13:59.667Z,38.50
2022-08-14T17:16:37.606Z,38.80
2022-08-14T17:19:09.895Z,39.60
2022-08-14T17:21:41.726Z,40.10
2022-08-14T17:24:56.587Z,40.70
2022-08-14T17:27:03.684Z,40.90
2022-08-14T17:29:44.722Z,40.60
2022-08-14T17:32:29.507Z,40.30
2022-08-14T17:35:16.909Z,40.30
2022-08-14T17:37:55.488Z,40.40
2022-08-14T17:40:29.987Z,40.30
2022-08-14T17:43:02.316Z,40.70
2022-08-14T17:45:41.043Z,41.30
2022-08-14T17:49:14.857Z,41.50
2022-08-14T17:51:16.954Z,41.80
2022-08-14T17:53:56.887Z,41.80
2022-08-14T17:56:30.912Z,42.10
2022-08-14T17:59:06.791Z,42.50
2022-08-14T18:01:45.787Z,42.70
2022-08-14T18:04:28.316Z,42.40
2022-08-14T18:07:16.555Z,42.60
2022-08-14T18:09:56.752Z,42.90
2022-08-14T18:12:32.880Z,43.10
2022-08-14T18:15:15.855Z,43.40
2022-08-14T18:17:53.400Z,43.80
2022-08-14T18:21:41.926Z,43.80
2022-08-14T18:23:13.638Z,43.90
2022-08-14T18:25:52.725Z,43.70
2022-08-14T18:28:51.739Z,43.70
2022-08-14T18:31:44.081Z,43.70
2022-08-14T18:34:31.971Z,43.50
2022-08-14T18:37:17.657Z,43.30
2022-08-14T18:40:02.881Z,43.20
2022-08-14T18:42:34.918Z,42.90
2022-08-14T18:45:12.252Z,43.10
2022-08-14T18:48:14.299Z,43.10
2022-08-14T18:50:32.090Z,43.40
2022-08-14T18:53:11.321Z,43.20
2022-08-14T18:55:53.209Z,42.90
2022-08-14T18:58:27.599Z,42.90
2022-08-14T19:01:00.271Z,42.90
2022-08-14T19:03:37.098Z,42.90
2022-08-14T19:06:09.435Z,43.10
2022-08-14T19:08:49.514Z,43.10
2022-08-14T19:11:32.413Z,43.30
2022-08-14T19:14:05.285Z,43.40
2022-08-14T19:16:43.094Z,43.60
2022-08-14T19:19:20.489Z,43.70
2022-08-14T19:21:57.024Z,43.90
2022-08-14T19:24:44.241Z,43.90
2022-08-14T19:27:26.236Z,44.00
2022-08-14T19:30:20.007Z,44.30
2022-08-14T19:32:55.687Z,44.50
2022-08-14T19:35:49.844Z,44.70
2022-08-14T19:38:59.258Z,45.10
2022-08-14T19:41:37.743Z,45.50
2022-08-14T19:44:15.562Z,45.90
2022-08-14T19:47:00.375Z,46.10
2022-08-14T19:50:08.323Z,46.50
2022-08-14T19:52:39.779Z,47.00
2022-08-14T19:55:20.194Z,47.30
2022-08-14T19:57:58.833Z,47.70
2022-08-14T20:00:29.377Z,47.60
2022-08-14T20:03:13.482Z,47.90
2022-08-14T20:06:05.549Z,48.00
2022-08-14T20:10:59.458Z,48.10
2022-08-14T20:12:00.636Z,48.20
2022-08-14T20:14:29.567Z,48.60
2022-08-14T20:17:05.520Z,48.70
2022-08-14T20:19:37.655Z,48.90
2022-08-14T20:22:37.167Z,49.10
2022-08-14T20:24:54.380Z,49.30
2022-08-14T20:27:40.144Z,49.80
2022-08-14T20:30:37.605Z,50.20
2022-08-14T20:33:11.802Z,50.40
2022-08-14T20:35:38.822Z,50.80
2022-08-14T20:38:29.133Z,51.00
2022-08-14T20:41:10.765Z,51.50
2022-08-14T20:44:02.766Z,51.80
2022-08-14T20:46:38.610Z,52.00
2022-08-14T20:49:16.588Z,52.30
2022-08-14T20:51:54.561Z,52.50
2022-08-14T20:54:37.085Z,52.80
2022-08-14T20:57:18.659Z,53.10
2022-08-14T20:59:57.444Z,53.20
2022-08-14T21:02:46.401Z,53.30
2022-08-14T21:05:22.439Z,53.90
2022-08-14T21:08:09.980Z,54.20
2022-08-14T21:10:50.205Z,54.60
2022-08-14T21:13:27.734Z,54.80
2022-08-14T21:16:34.328Z,55.50
2022-08-14T21:18:58.745Z,55.90
2022-08-14T21:21:41.777Z,55.90
2022-08-14T21:24:38.738Z,56.30
2022-08-14T21:27:12.756Z,56.40
2022-08-14T21:29:53.435Z,57.10
2022-08-14T21:32:34.871Z,57.60
2022-08-14T21:35:09.899Z,57.90
2022-08-14T21:37:46.004Z,58.20
2022-08-14T21:40:35.369Z,58.10
2022-08-14T21:43:05.165Z,58.40
2022-08-14T21:45:35.613Z,58.90
2022-08-14T21:48:10.800Z,59.30
2022-08-14T21:51:01.204Z,59.60
2022-08-14T21:53:34.050Z,60.00
2022-08-14T21:56:03.584Z,60.50
2022-08-14T21:58:52.636Z,60.90
2022-08-14T22:01:20.325Z,61.20
2022-08-14T22:03:55.112Z,61.70
2022-08-14T22:06:28.584Z,61.90
2022-08-14T22:08:59.892Z,62.10
2022-08-14T22:11:28.191Z,62.20
2022-08-14T22:13:56.677Z,62.60
2022-08-14T22:17:01.975Z,62.80
2022-08-14T22:19:21.213Z,62.90
2022-08-14T22:21:50.972Z,63.40
2022-08-14T22:24:38.080Z,63.40
2022-08-14T22:27:10.263Z,63.90
2022-08-14T22:29:39.021Z,64.40
2022-08-14T22:32:07.376Z,64.80
2022-08-14T22:34:35.889Z,65.90
2022-08-14T22:37:08.365Z,65.30
2022-08-14T22:40:17.599Z,65.60
2022-08-14T22:42:24.628Z,65.80
2022-08-14T22:44:57.844Z,66.20
2022-08-14T22:47:26.317Z,66.20
2022-08-14T22:50:32.127Z,66.50
2022-08-14T22:52:56.695Z,66.70
2022-08-14T22:55:27.227Z,67.10
2022-08-14T22:57:54.178Z,67.30
2022-08-14T23:00:25.076Z,67.80
2022-08-14T23:03:00.380Z,68.20
2022-08-14T23:05:39.604Z,68.60
2022-08-14T23:09:00.057Z,68.70
2022-08-14T23:10:59.576Z,68.70
2022-08-14T23:13:26.627Z,68.60
2022-08-14T23:15:58.286Z,69.00
2022-08-14T23:18:29.761Z,69.10
2022-08-14T23:20:57.738Z,69.20
2022-08-14T23:23:24.846Z,69.40
2022-08-14T23:26:00.025Z,69.30
2022-08-14T23:28:33.402Z,69.60
2022-08-14T23:31:34.500Z,69.60
2022-08-14T23:34:09.888Z,69.60
2022-08-14T23:36:54.397Z,69.70
2022-08-14T23:39:29.931Z,69.80
2022-08-14T23:42:06.175Z,69.50
2022-08-14T23:44:37.420Z,70.00
2022-08-14T23:47:10.805Z,70.30
2022-08-14T23:49:56.721Z,70.90
2022-08-14T23:52:51.379Z,70.80
2022-08-14T23:55:15.839Z,71.00
2022-08-14T23:57:57.721Z,71.40
